createdAt,value
2023-03-29T00:02:01.391Z,7.10
2023-03-29T00:04:49.517Z,7.10
2023-03-29T00:07:36.124Z,7.10
2023-03-29T00:10:23.901Z,7.20
2023-03-29T00:13:10.441Z,7.20
2023-03-29T00:15:57.208Z,7.30
2023-03-29T00:18:43.669Z,7.30
2023-03-29T00:21:31.390Z,7.20
2023-03-29T00:24:17.736Z,7.20
2023-03-29T00:27:04.361Z,7.30
2023-03-29T00:29:51.250Z,7.30
2023-03-29T00:32:38.683Z,7.30
2023-03-29T00:35:25.793Z,7.20
2023-03-29T00:38:14.073Z,7.20
2023-03-29T00:41:01.356Z,7.30
2023-03-29T00:43:57.457Z,7.30
2023-03-29T00:46:44.271Z,7.20
2023-03-29T00:49:30.845Z,7.20
2023-03-29T00:52:21.297Z,7.40
2023-03-29T00:55:14.637Z,7.20
2023-03-29T00:58:04.387Z,7.20
2023-03-29T01:00:57.828Z,7.10
2023-03-29T01:03:50.547Z,7.10
2023-03-29T01:06:43.334Z,7.10
2023-03-29T01:09:32.359Z,7.10
2023-03-29T01:12:25.185Z,7.10
2023-03-29T01:15:13.884Z,7.10
2023-03-29T01:18:03.132Z,7.10
2023-03-29T01:21:10.110Z,7.00
2023-03-29T01:24:25.963Z,7.10
2023-03-29T01:27:22.734Z,7.00
2023-03-29T01:30:15.360Z,7.10
2023-03-29T01:33:07.521Z,7.10
2023-03-29T01:35:58.693Z,7.10
2023-03-29T01:38:50.825Z,7.10
2023-03-29T01:41:45.155Z,7.20
2023-03-29T01:44:38.944Z,7.20
2023-03-29T01:47:37.084Z,7.20
2023-03-29T01:50:34.659Z,7.20
2023-03-29T01:53:28.170Z,7.30
2023-03-29T01:56:17.486Z,7.30
2023-03-29T01:59:07.576Z,7.30
2023-03-29T02:01:59.926Z,7.40
2023-03-29T02:04:53.570Z,7.50
2023-03-29T02:07:40.780Z,7.40
2023-03-29T02:10:28.792Z,7.40
2023-03-29T02:13:15.902Z,7.30
2023-03-29T02:16:04.724Z,7.30
2023-03-29T02:18:56.309Z,7.30
2023-03-29T02:21:51.783Z,7.20
2023-03-29T02:24:40.790Z,7.20
2023-03-29T02:27:30.013Z,7.40
2023-03-29T02:30:20.631Z,7.60
2023-03-29T02:33:14.396Z,7.70
2023-03-29T02:36:05.493Z,7.90
2023-03-29T02:38:54.332Z,7.90
2023-03-29T02:41:43.252Z,8.00
2023-03-29T02:44:32.838Z,7.80
2023-03-29T02:47:24.561Z,7.60
2023-03-29T02:50:12.127Z,7.70
2023-03-29T02:53:02.538Z,7.80
2023-03-29T02:55:50.614Z,7.70
2023-03-29T02:58:37.461Z,7.70
2023-03-29T03:01:24.460Z,7.60
2023-03-29T03:04:11.656Z,7.70
2023-03-29T03:06:58.414Z,7.70
2023-03-29T03:09:46.357Z,7.70
2023-03-29T03:12:34.421Z,7.60
2023-03-29T03:15:21.294Z,7.50
2023-03-29T03:18:08.315Z,7.60
2023-03-29T03:20:59.269Z,7.60
2023-03-29T03:23:47.182Z,7.50
2023-03-29T03:26:33.797Z,7.60
2023-03-29T03:29:22.011Z,7.50
2023-03-29T03:32:31.848Z,7.40
2023-03-29T03:35:38.666Z,7.30
2023-03-29T03:38:27.196Z,7.10
2023-03-29T03:41:17.282Z,7.10
2023-03-29T03:44:03.802Z,7.10
2023-03-29T03:46:51.976Z,7.20
2023-03-29T03:49:38.522Z,7.20
2023-03-29T03:52:26.146Z,7.30
2023-03-29T03:55:12.912Z,7.40
2023-03-29T03:58:02.770Z,7.10
2023-03-29T04:00:51.700Z,6.90
2023-03-29T04:03:52.634Z,6.80
2023-03-29T04:06:41.757Z,6.60
2023-03-29T04:09:54.072Z,6.30
2023-03-29T04:12:50.998Z,6.20
2023-03-29T04:15:38.371Z,6.30
2023-03-29T04:18:28.250Z,6.20
2023-03-29T04:21:20.708Z,6.00
2023-03-29T04:24:08.652Z,5.80
2023-03-29T04:26:57.973Z,5.80
2023-03-29T04:29:44.969Z,5.90
2023-03-29T04:32:43.232Z,5.90
2023-03-29T04:35:30.566Z,5.80
2023-03-29T04:38:23.170Z,5.90
2023-03-29T04:41:13.313Z,5.90
2023-03-29T04:44:15.331Z,6.00
2023-03-29T04:47:02.683Z,6.10
2023-03-29T04:50:12.946Z,6.20
2023-03-29T04:53:03.673Z,6.20
2023-03-29T04:55:52.450Z,6.20
2023-03-29T04:58:53.458Z,6.20
2023-03-29T05:01:41.500Z,6.00
2023-03-29T05:04:29.220Z,6.10
2023-03-29T05:07:26.610Z,6.00
2023-03-29T05:10:13.640Z,6.20
2023-03-29T05:13:03.875Z,6.30
2023-03-29T05:15:51.970Z,6.30
2023-03-29T05:18:40.024Z,6.30
2023-03-29T05:21:28.323Z,6.40
2023-03-29T05:24:18.064Z,6.40
2023-03-29T05:27:07.624Z,6.60
2023-03-29T05:29:57.614Z,6.60
2023-03-29T05:32:49.534Z,6.70
2023-03-29T05:35:41.963Z,6.80
2023-03-29T05:38:29.701Z,6.90
2023-03-29T05:41:17.853Z,6.80
2023-03-29T05:44:23.570Z,6.90
2023-03-29T05:47:17.775Z,7.00
2023-03-29T05:50:05.338Z,6.90
2023-03-29T05:52:52.469Z,6.90
2023-03-29T05:55:39.198Z,6.80
2023-03-29T05:58:26.378Z,6.80
2023-03-29T06:01:14.496Z,6.70
2023-03-29T06:04:26.252Z,6.80
2023-03-29T06:07:32.112Z,7.00
2023-03-29T06:10:36.430Z,7.20
2023-03-29T06:13:47.009Z,7.20
2023-03-29T06:16:33.899Z,7.20
2023-03-29T06:19:21.322Z,7.40
2023-03-29T06:22:09.420Z,7.50
2023-03-29T06:24:55.956Z,7.40
2023-03-29T06:27:47.857Z,7.60
2023-03-29T06:30:36.503Z,7.60
2023-03-29T06:33:25.140Z,7.50
2023-03-29T06:36:21.924Z,7.40
2023-03-29T06:39:11.064Z,7.40
2023-03-29T06:42:21.665Z,7.30
2023-03-29T06:45:39.850Z,7.30
2023-03-29T06:48:33.388Z,7.40
2023-03-29T06:51:22.751Z,7.40
2023-03-29T06:54:12.482Z,7.70
2023-03-29T06:57:07.958Z,7.90
2023-03-29T06:59:55.182Z,8.00
2023-03-29T07:02:45.677Z,8.20
2023-03-29T07:05:32.315Z,8.40
2023-03-29T07:08:21.309Z,8.50
2023-03-29T07:11:18.631Z,8.50
2023-03-29T07:14:14.403Z,8.50
2023-03-29T07:17:01.326Z,8.70
2023-03-29T07:19:57.713Z,8.80
2023-03-29T07:23:04.793Z,8.90
2023-03-29T07:25:51.491Z,9.00
2023-03-29T07:28:40.578Z,9.10
2023-03-29T07:31:29.314Z,9.20
2023-03-29T07:34:30.061Z,9.10
2023-03-29T07:37:16.634Z,9.20
2023-03-29T07:40:11.320Z,9.30
2023-03-29T07:43:08.856Z,9.30
2023-03-29T07:45:59.056Z,9.30
2023-03-29T07:48:46.003Z,9.50
2023-03-29T07:51:36.526Z,9.60
2023-03-29T07:54:27.970Z,9.80
2023-03-29T07:57:28.399Z,9.80
2023-03-29T08:00:20.060Z,10.00
2023-03-29T08:03:23.506Z,10.10
2023-03-29T08:06:10.221Z,10.20
2023-03-29T08:08:57.437Z,10.20
2023-03-29T08:11:44.078Z,10.30
2023-03-29T08:14:42.124Z,10.10
2023-03-29T08:17:51.255Z,10.00
2023-03-29T08:20:39.764Z,10.10
2023-03-29T08:23:26.191Z,10.20
2023-03-29T08:26:12.583Z,10.40
2023-03-29T08:29:00.249Z,10.50
2023-03-29T08:31:47.928Z,10.60
2023-03-29T08:34:35.582Z,10.70
2023-03-29T08:37:37.674Z,10.90
2023-03-29T08:40:27.948Z,10.80
2023-03-29T08:43:47.164Z,10.90
2023-03-29T08:46:52.894Z,11.10
2023-03-29T08:49:54.454Z,11.20
2023-03-29T08:52:52.340Z,11.30
2023-03-29T08:56:07.025Z,11.40
2023-03-29T08:59:27.333Z,11.50
2023-03-29T09:02:19.225Z,11.60
2023-03-29T09:05:22.549Z,11.80
2023-03-29T09:08:21.941Z,11.90
2023-03-29T09:11:27.431Z,12.20
2023-03-29T09:14:30.908Z,12.20
2023-03-29T09:17:36.774Z,12.20
2023-03-29T09:20:37.690Z,12.10
2023-03-29T09:24:01.389Z,12.30
2023-03-29T09:27:05.155Z,12.20
2023-03-29T09:30:04.592Z,12.40
2023-03-29T09:33:18.048Z,12.80
2023-03-29T09:36:23.247Z,13.30
2023-03-29T09:39:16.183Z,13.70
2023-03-29T09:42:09.224Z,13.80
2023-03-29T09:45:08.272Z,13.80
2023-03-29T09:48:06.314Z,13.70
2023-03-29T09:50:53.838Z,13.50
2023-03-29T09:53:41.092Z,13.70
2023-03-29T09:56:54.158Z,14.60
2023-03-29T09:59:42.318Z,15.00
2023-03-29T10:02:32.642Z,15.00
2023-03-29T10:05:19.943Z,14.70
2023-03-29T10:08:19.738Z,14.50
2023-03-29T10:11:13.589Z,14.50
2023-03-29T10:14:05.137Z,14.60
2023-03-29T10:16:57.201Z,14.70
2023-03-29T10:19:50.786Z,14.80
2023-03-29T10:22:40.426Z,15.10
2023-03-29T10:25:29.789Z,15.70
2023-03-29T10:28:18.642Z,16.10
2023-03-29T10:31:08.223Z,16.70
2023-03-29T10:33:56.956Z,17.00
2023-03-29T10:36:48.129Z,17.10
2023-03-29T10:39:35.507Z,16.80
2023-03-29T10:42:26.723Z,16.80
2023-03-29T10:45:22.930Z,17.00
2023-03-29T10:48:13.950Z,17.50
2023-03-29T10:51:03.105Z,17.60
2023-03-29T10:53:50.070Z,17.60
2023-03-29T10:56:41.232Z,17.90
2023-03-29T10:59:30.858Z,17.90
2023-03-29T11:02:43.282Z,18.00
2023-03-29T11:05:35.539Z,18.00
2023-03-29T11:08:42.151Z,17.60
2023-03-29T11:12:08.267Z,17.50
2023-03-29T11:15:17.938Z,17.20
2023-03-29T11:18:24.487Z,17.40
2023-03-29T11:21:24.441Z,17.80
2023-03-29T11:24:38.223Z,17.90
2023-03-29T11:27:34.287Z,18.00
2023-03-29T11:30:26.439Z,18.10
2023-03-29T11:33:24.533Z,18.10
2023-03-29T11:36:18.986Z,17.90
2023-03-29T11:39:15.319Z,17.70
2023-03-29T11:42:07.757Z,17.30
2023-03-29T11:44:55.719Z,17.20
2023-03-29T11:47:46.135Z,17.10
2023-03-29T11:50:38.498Z,17.10
2023-03-29T11:53:32.261Z,17.20
2023-03-29T11:56:27.664Z,17.10
2023-03-29T11:59:20.504Z,17.10
2023-03-29T12:02:16.853Z,16.90
2023-03-29T12:05:09.092Z,16.70
2023-03-29T12:08:02.573Z,16.60
2023-03-29T12:10:52.673Z,16.50
2023-03-29T12:13:43.598Z,16.50
2023-03-29T12:16:35.398Z,16.60
2023-03-29T12:19:27.644Z,16.70
2023-03-29T12:22:14.526Z,16.90
2023-03-29T12:25:06.361Z,16.70
2023-03-29T12:28:13.213Z,16.90
2023-03-29T12:31:10.597Z,16.80
2023-03-29T12:34:25.563Z,16.60
2023-03-29T12:37:33.845Z,16.70
2023-03-29T12:40:43.257Z,16.70
2023-03-29T12:43:51.087Z,16.50
2023-03-29T12:46:44.634Z,16.30
2023-03-29T12:49:35.855Z,16.40
2023-03-29T12:52:28.511Z,16.40
2023-03-29T12:55:25.120Z,16.30
2023-03-29T12:58:27.565Z,16.20
2023-03-29T13:01:29.990Z,16.20
2023-03-29T13:04:19.945Z,16.00
2023-03-29T13:07:07.367Z,16.00
2023-03-29T13:09:55.555Z,16.20
2023-03-29T13:12:44.711Z,16.10
2023-03-29T13:15:35.710Z,15.90
2023-03-29T13:18:36.182Z,15.80
2023-03-29T13:21:29.951Z,15.70
2023-03-29T13:24:26.563Z,15.50
2023-03-29T13:27:22.635Z,15.30
2023-03-29T13:30:25.310Z,15.30
2023-03-29T13:33:45.697Z,15.20
2023-03-29T13:36:45.901Z,15.10
2023-03-29T13:39:36.799Z,15.10
2023-03-29T13:42:27.242Z,15.00
2023-03-29T13:45:17.614Z,14.90
2023-03-29T13:48:07.032Z,14.80
2023-03-29T13:50:57.714Z,14.90
2023-03-29T13:53:50.673Z,15.00
2023-03-29T13:56:43.176Z,15.20
2023-03-29T13:59:38.609Z,15.20
2023-03-29T14:02:41.593Z,15.20
2023-03-29T14:05:31.546Z,15.40
2023-03-29T14:08:24.207Z,15.40
2023-03-29T14:11:22.959Z,15.30
2023-03-29T14:14:12.297Z,15.30
2023-03-29T14:16:59.716Z,15.50
2023-03-29T14:19:46.774Z,15.60
2023-03-29T14:22:35.111Z,15.70
2023-03-29T14:25:23.975Z,15.70
2023-03-29T14:28:21.729Z,15.80
2023-03-29T14:31:18.626Z,15.90
2023-03-29T14:34:07.874Z,15.90
2023-03-29T14:36:54.655Z,15.90
2023-03-29T14:39:42.162Z,15.90
2023-03-29T14:42:30.525Z,16.00
2023-03-29T14:45:21.658Z,16.00
2023-03-29T14:48:11.438Z,15.90
2023-03-29T14:50:58.281Z,15.90
2023-03-29T14:53:45.094Z,16.10
2023-03-29T14:56:33.036Z,16.20
2023-03-29T14:59:36.700Z,16.20
2023-03-29T15:02:25.407Z,16.20
2023-03-29T15:05:33.297Z,16.30
2023-03-29T15:08:26.706Z,16.20
2023-03-29T15:11:16.399Z,16.30
2023-03-29T15:14:05.764Z,16.40
2023-03-29T15:16:57.931Z,16.30
2023-03-29T15:19:44.991Z,16.20
2023-03-29T15:22:35.061Z,16.20
2023-03-29T15:25:22.582Z,16.20
2023-03-29T15:28:26.066Z,16.30
2023-03-29T15:31:15.320Z,16.20
2023-03-29T15:34:09.488Z,16.30
2023-03-29T15:36:57.314Z,16.30
2023-03-29T15:39:45.343Z,16.20
2023-03-29T15:42:32.004Z,16.20
2023-03-29T15:45:19.878Z,16.30
2023-03-29T15:48:15.510Z,16.20
2023-03-29T15:51:06.416Z,16.10
2023-03-29T15:53:53.069Z,16.10
2023-03-29T15:56:45.949Z,15.80
2023-03-29T15:59:33.367Z,15.80
2023-03-29T16:02:24.180Z,15.80
2023-03-29T16:05:13.042Z,15.80
2023-03-29T16:08:00.951Z,15.80
2023-03-29T16:10:47.307Z,15.80
2023-03-29T16:13:34.036Z,15.90
2023-03-29T16:16:20.240Z,16.00
2023-03-29T16:19:07.053Z,16.00
2023-03-29T16:21:54.513Z,16.00
2023-03-29T16:24:43.809Z,15.90
2023-03-29T16:27:31.221Z,15.90
2023-03-29T16:30:17.698Z,15.90
2023-03-29T16:33:08.136Z,15.90
2023-03-29T16:35:56.039Z,15.80
2023-03-29T16:38:42.529Z,15.70
2023-03-29T16:41:31.530Z,15.60
2023-03-29T16:44:22.472Z,15.50
2023-03-29T16:47:12.225Z,15.40
2023-03-29T16:49:58.975Z,15.50
2023-03-29T16:52:46.247Z,15.40
2023-03-29T16:55:32.934Z,15.30
2023-03-29T16:58:21.225Z,15.30
2023-03-29T17:01:09.867Z,15.30
2023-03-29T17:03:57.093Z,15.20
2023-03-29T17:06:43.824Z,15.10
2023-03-29T17:09:30.958Z,15.10
2023-03-29T17:12:18.101Z,15.00
2023-03-29T17:15:07.993Z,14.90
2023-03-29T17:17:54.680Z,14.90
2023-03-29T17:20:41.608Z,14.80
2023-03-29T17:23:29.271Z,14.70
2023-03-29T17:26:16.056Z,14.80
2023-03-29T17:29:02.784Z,14.80
2023-03-29T17:31:51.058Z,14.70
2023-03-29T17:34:38.570Z,14.70
2023-03-29T17:37:25.910Z,14.60
2023-03-29T17:40:14.145Z,14.60
2023-03-29T17:43:00.557Z,14.50
2023-03-29T17:45:50.688Z,14.40
2023-03-29T17:48:39.131Z,14.20
2023-03-29T17:51:26.191Z,14.00
2023-03-29T17:54:12.982Z,14.00
2023-03-29T17:56:59.480Z,14.00
2023-03-29T17:59:46.059Z,14.00
2023-03-29T18:02:32.537Z,14.00
2023-03-29T18:05:20.953Z,14.10
2023-03-29T18:08:08.681Z,14.00
2023-03-29T18:10:55.316Z,14.10
2023-03-29T18:13:44.041Z,14.10
2023-03-29T18:16:30.654Z,14.20
2023-03-29T18:19:17.563Z,14.10
2023-03-29T18:22:05.293Z,13.90
2023-03-29T18:24:52.105Z,13.80
2023-03-29T18:27:39.404Z,13.60
2023-03-29T18:30:26.224Z,13.60
2023-03-29T18:33:12.796Z,13.60
2023-03-29T18:35:59.825Z,13.70
2023-03-29T18:38:48.014Z,13.70
2023-03-29T18:41:35.663Z,13.70
2023-03-29T18:44:23.061Z,13.70
2023-03-29T18:47:09.835Z,13.70
2023-03-29T18:49:57.710Z,13.80
2023-03-29T18:52:44.298Z,13.90
2023-03-29T18:55:32.366Z,13.90
2023-03-29T18:58:20.399Z,13.90
2023-03-29T19:01:07.828Z,14.00
2023-03-29T19:03:54.665Z,14.00
2023-03-29T19:06:42.333Z,13.90
2023-03-29T19:09:28.755Z,13.70
2023-03-29T19:12:16.835Z,13.70
2023-03-29T19:15:03.868Z,13.60
2023-03-29T19:17:50.399Z,13.50
2023-03-29T19:20:37.789Z,13.50
2023-03-29T19:23:27.259Z,13.40
2023-03-29T19:26:15.310Z,13.40
2023-03-29T19:29:03.772Z,13.30
2023-03-29T19:31:51.772Z,13.20
2023-03-29T19:34:38.606Z,13.10
2023-03-29T19:37:25.532Z,13.00
2023-03-29T19:40:12.573Z,12.90
2023-03-29T19:42:59.337Z,12.80
2023-03-29T19:45:48.529Z,12.90
2023-03-29T19:48:35.235Z,12.90
2023-03-29T19:51:22.709Z,12.70
2023-03-29T19:54:09.413Z,12.80
2023-03-29T19:56:57.291Z,12.90
2023-03-29T19:59:43.992Z,12.90
2023-03-29T20:02:31.966Z,12.90
2023-03-29T20:05:18.872Z,12.90
2023-03-29T20:08:05.764Z,13.00
2023-03-29T20:10:58.428Z,13.10
2023-03-29T20:13:46.208Z,13.10
2023-03-29T20:16:34.750Z,13.10
2023-03-29T20:19:24.957Z,13.10
2023-03-29T20:22:12.374Z,13.20
2023-03-29T20:24:58.982Z,13.20
2023-03-29T20:27:45.354Z,13.20
2023-03-29T20:30:32.222Z,13.20
2023-03-29T20:33:19.021Z,13.20
2023-03-29T20:36:08.427Z,13.10
2023-03-29T20:38:56.219Z,13.00
2023-03-29T20:41:47.418Z,13.00
2023-03-29T20:44:35.297Z,13.00
2023-03-29T20:47:22.630Z,12.90
2023-03-29T20:50:10.555Z,12.90
2023-03-29T20:53:03.732Z,12.90
2023-03-29T20:55:51.610Z,12.90
2023-03-29T20:58:41.781Z,12.90
2023-03-29T21:01:29.473Z,12.90
2023-03-29T21:04:15.991Z,12.80
2023-03-29T21:07:03.570Z,12.80
2023-03-29T21:09:51.725Z,12.80
2023-03-29T21:12:39.993Z,12.70
2023-03-29T21:15:27.527Z,12.70
2023-03-29T21:18:14.063Z,12.70
2023-03-29T21:21:00.294Z,12.80
2023-03-29T21:23:46.651Z,12.80
2023-03-29T21:26:34.860Z,12.70
2023-03-29T21:29:21.469Z,12.80
2023-03-29T21:32:08.224Z,12.80
2023-03-29T21:34:55.035Z,12.80
2023-03-29T21:37:41.389Z,12.80
2023-03-29T21:40:27.789Z,12.80
2023-03-29T21:43:15.607Z,12.80
2023-03-29T21:46:01.937Z,12.80
2023-03-29T21:48:48.258Z,12.70
2023-03-29T21:51:34.777Z,12.60
2023-03-29T21:54:21.111Z,12.50
2023-03-29T21:57:07.731Z,12.40
2023-03-29T21:59:55.958Z,12.50
2023-03-29T22:02:43.346Z,12.50
2023-03-29T22:05:30.065Z,12.40
2023-03-29T22:08:16.369Z,12.40
2023-03-29T22:11:08.225Z,12.40
2023-03-29T22:13:56.291Z,12.50
2023-03-29T22:16:45.521Z,12.40
2023-03-29T22:19:32.711Z,12.30
2023-03-29T22:22:21.664Z,12.20
2023-03-29T22:25:09.337Z,12.20
2023-03-29T22:27:55.689Z,12.10
2023-03-29T22:30:42.208Z,12.10
2023-03-29T22:33:29.951Z,12.20
2023-03-29T22:36:18.220Z,12.20
2023-03-29T22:39:05.773Z,12.20
2023-03-29T22:41:52.396Z,12.20
2023-03-29T22:44:38.702Z,12.20
2023-03-29T22:47:25.153Z,12.10
2023-03-29T22:50:12.999Z,11.90
2023-03-29T22:52:59.662Z,11.70
2023-03-29T22:55:46.160Z,11.70
2023-03-29T22:58:32.854Z,11.50
2023-03-29T23:01:19.578Z,11.50
2023-03-29T23:04:06.556Z,11.50
2023-03-29T23:06:54.279Z,11.50
2023-03-29T23:09:40.903Z,11.50
2023-03-29T23:12:27.720Z,11.70
2023-03-29T23:15:14.262Z,11.90
2023-03-29T23:18:01.696Z,11.90
2023-03-29T23:20:49.412Z,12.00
2023-03-29T23:23:37.464Z,11.90
2023-03-29T23:26:24.135Z,11.80
2023-03-29T23:29:10.826Z,11.80
2023-03-29T23:31:59.421Z,11.80
2023-03-29T23:34:46.031Z,11.90
2023-03-29T23:37:32.384Z,12.00
2023-03-29T23:40:20.316Z,12.00
2023-03-29T23:43:06.564Z,12.10
2023-03-29T23:45:57.223Z,12.10
2023-03-29T23:48:46.713Z,12.20
2023-03-29T23:51:35.032Z,12.20
2023-03-29T23:54:21.419Z,12.20
2023-03-29T23:57:10.782Z,12.10
